• Join FlightAware (Why Join?)
  • Login
  • US Flag GB Flag 
08:39 EST


 

Airport Tracker/Info


-or-


 

Live Flight TrackerFlight Track Log ✈ GLF55 ✈ 06-May-2013 ✈ KDAL - KDAL

Flight Track Log - Related Links

Times and Time Zones

All times are in EDT time to prevent confusion due to time zone crossing. See the GLF55 flight status page for this flight to view local times or setup timezone preferences in your user account.

Time Position Orientation Groundspeed Altitude Reporting Facility
EDT Latitude Longitude Course Direction KTS MPH feet Rate Location/Type
14:46 32.8667 -96.8667 283° West 195 224 1,300  Level Dallas / Fort Worth TRACON
14:49 32.9061 -97.0744 283° West 282 325 13,200 4,020 Climbing Fort Worth Center
14:50 32.8833 -97.1636 253° West 300 345 17,100 3,300 Climbing Fort Worth Center
14:52 32.8272 -97.3664 252° West 333 383 23,100 3,060 Climbing Fort Worth Center
14:54 32.7664 -97.5764 251° West 343 395 29,500 2,940 Climbing Fort Worth Center
14:55 32.7328 -97.7000 252° West 354 407 32,000 1,920 Climbing Fort Worth Center
14:57 32.7167 -97.9737 270° West  Level FlightAware Approximate
14:59 32.7039 -98.1567 259° West 353 406 39,300  Level Fort Worth Center
15:00 32.6906 -98.2772 263° West 369 425 40,000 300 Climbing Fort Worth Center
15:01 32.6750 -98.4031 262° West 378 435 40,000  Level Fort Worth Center
15:02 32.6572 -98.5311 261° West 391 450 40,000  Level Fort Worth Center
15:04 32.5941 -98.9522 259° West  Level FlightAware Approximate
15:04 32.6231 -98.8069 262° West 415 478 40,000  Level Fort Worth Center
15:06 32.5883 -99.0778 261° West 427 491 41,700 960 Climbing Fort Worth Center
15:07 32.5678 -99.2106 260° West 427 491 42,900 600 Climbing Fort Worth Center
15:08 32.5492 -99.3456 261° West 427 491 43,000  Climbing Fort Worth Center
15:09 32.5303 -99.4858 261° West 433 498 43,000  Level Fort Worth Center
15:11 32.4824 -99.7558 259° West  Level FlightAware Approximate
15:12 32.4681 -99.9150 259° West 448 516 43,000  Level Fort Worth Center
15:14 32.4269 -100.1822 260° West 443 510 43,000  Level Fort Worth Center
15:15 32.4028 -100.3242 259° West 443 510 43,000  Level Fort Worth Center
15:17 32.3540 -100.5934 258° West  Level FlightAware Approximate
15:20 32.2844 -101.0281 258° West 448 516 43,000  Level Fort Worth Center
15:21 32.2594 -101.1672 258° West 448 516 42,900  Descending Fort Worth Center
15:23 32.2042 -101.4644 258° West 448 516 43,000  Climbing Fort Worth Center
15:24 32.1740 -101.5576 258° West  Level FlightAware Approximate
15:24 32.1767 -101.6053 257° West 448 516 43,000  Level Fort Worth Center
15:25 32.1479 -101.6950 258° West  Level FlightAware Approximate
15:25 32.1556 -101.7344 258° West 431 496 43,000  Level Fort Worth Center
15:26 32.1271 -101.8737 258° West  Level FlightAware Approximate
15:27 32.1128 -102.0022 259° West 423 487 43,000  Level Fort Worth Center
15:28 32.0869 -102.1358 257° West 428 493 43,000  Level Fort Worth Center
15:31 31.9521 -102.8136 257° West  Level FlightAware Approximate
15:32 31.9867 -102.6644 21° North 423 487 43,000  Level Fort Worth Center
15:34 31.9358 -102.9233 257° West 418 481 43,000  Level Fort Worth Center
15:35 31.9111 -103.0564 258° West 418 481 43,000  Level Fort Worth Center
15:36 31.9275 -103.1544 281° West 404 465 43,000  Level Albuquerque Center
15:37 32.0275 -103.2136 333° Northwest 435 501 43,000  Level Albuquerque Center
15:38 32.3050 -103.0387 21° North  Level FlightAware Approximate
15:39 32.3033 -103.0611 25° Northeast 421 484 43,000  Level Fort Worth Center
15:40 32.4206 -103.0094 20° North 457 526 43,000  Level Fort Worth Center
15:42 32.6205 -102.9118 22° Northeast  Level FlightAware Approximate
15:44 32.9683 -102.7558 21° North 506 582 43,000  Level Albuquerque Center
15:45 33.0806 -102.7086 19° North 498 573 43,000  Level Fort Worth Center
15:47 33.3381 -102.5850 22° Northeast 492 566 43,000  Level Fort Worth Center
15:48 33.4867 -102.5239 19° North 498 573 43,000  Level Fort Worth Center
15:49 33.3736 -102.5526 21° North  Level FlightAware Approximate
15:49 33.6058 -102.4661 22° Northeast 503 579 43,000  Level Fort Worth Center
15:50 33.8056 -102.3714 22° Northeast 509 586 43,000  Level Kansas City Center
15:51 33.8694 -102.3439 20° North 498 573 43,000  Level Fort Worth Center
15:53 34.2008 -102.1883 21° North 505 581 43,000  Level Albuquerque Center
15:55 34.3648 -102.1078 22° Northeast  Level FlightAware Approximate
15:55 34.4633 -102.0656 22° Northeast 506 582 43,000  Level Albuquerque Center
15:56 34.5939 -102.0033 21° North 504 580 43,000  Level Albuquerque Center
15:57 34.7519 -101.9292 21° North 506 582 43,000  Level Albuquerque Center
15:58 34.8836 -101.8667 21° North 507 583 43,000  Level Albuquerque Center
15:59 35.0203 -101.8019 21° North 506 582 43,000  Level Albuquerque Center
16:00 35.1528 -101.7411 21° North 504 580 43,000  Level Albuquerque Center
16:01 35.2658 -101.6542 32° Northeast 501 577 43,000  Level Albuquerque Center
16:02 35.3542 -101.5186 51° Northeast 504 580 43,000  Level Albuquerque Center
16:03 35.4406 -101.3839 52° Northeast 501 577 43,000  Level Albuquerque Center
16:04 35.5283 -101.2450 52° Northeast 500 575 43,000  Level Albuquerque Center
16:05 35.6153 -101.1092 52° Northeast 504 580 43,000  Level Albuquerque Center
16:07 35.8058 -100.8064 52° Northeast 510 587 43,000  Level Albuquerque Center
16:09 35.8919 -100.6700 52° Northeast 506 582 43,000  Level Albuquerque Center
16:10 35.9584 -100.5450 57° Northeast  Level FlightAware Approximate
16:11 36.0658 -100.3908 57° Northeast 513 590 43,000  Level Kansas City Center
16:13 36.2358 -100.1189 52° Northeast 500 575 43,000  Level Albuquerque Center
16:15 36.4108 -99.8331 53° Northeast 501 577 43,000  Level Kansas City Center
16:17 36.5850 -99.5492 53° Northeast 500 575 43,000  Level Kansas City Center
16:18 36.6783 -99.3961 53° Northeast 499 574 43,000  Level Kansas City Center
16:19 36.7581 -99.2633 53° Northeast 501 577 43,000  Level Kansas City Center
16:20 36.8367 -99.1317 53° Northeast 499 574 43,000  Level Kansas City Center
16:22 36.9553 -98.9306 54° Northeast  Level FlightAware Approximate
16:24 37.1836 -98.5492 54° Northeast 498 573 43,000  Level Kansas City Center
16:26 37.0092 -98.4771 162° South  Level Estimated
16:27 37.4456 -98.1006 162° South 491 565 43,000  Level Kansas City Center
16:28 37.5264 -97.9619 54° Northeast 495 570 43,000  Level Kansas City Center
16:29 37.4548 -98.0708 54° Northeast  Level FlightAware Approximate
16:30 37.5256 -97.9471 54° Northeast  Level FlightAware Approximate
16:30 37.3641 -97.9212 169° South  Level Estimated
16:30 37.6572 -97.6683 169° South 503 579 43,000  Level Kansas City Center
16:31 37.5769 -97.5375 128° Southeast 507 583 43,000  Level Kansas City Center
16:32 37.4197 -97.5700 189° South 479 551 43,000  Level Kansas City Center
16:34 37.2704 -97.5833 180° South  Level FlightAware Approximate
16:35 37.0119 -97.5897 180° South 479 551 43,000  Level Kansas City Center
16:37 36.8762 -97.5644 172° South  Level Estimated
16:40 36.4150 -97.5992 172° South 479 551 43,000  Level Fort Worth Center
16:41 36.4228 -97.5833 180° South  Level FlightAware Approximate
16:41 36.3067 -97.5986 180° South 477 549 43,000  Level Kansas City Center
16:42 36.1717 -97.6011 181° South 482 555 43,000  Level Kansas City Center
16:44 36.0377 -97.4102 172° South  Level Estimated
16:44 35.8647 -97.6056 181° South 502 578 43,000  Level Fort Worth Center
16:45 35.9179 -97.3884 172° South  Level Estimated
16:45 35.7292 -97.6078 181° South 496 571 43,000  Level Fort Worth Center
16:46 35.5894 -97.6128 182° South 496 571 43,000  Level Fort Worth Center
16:48 35.2933 -97.6069 179° South 502 578 43,000 -900 Level Fort Worth Center
16:50 35.0250 -97.5619 172° South 491 565 39,500 -2,100 Descending Kansas City Center
16:51 34.8972 -97.5478 175° South 482 555 36,700 -3,000 Descending Fort Worth Center
16:52 34.7636 -97.5297 174° South 477 549 33,800 -2,880 Descending Fort Worth Center
16:54 34.4989 -97.4917 173° South 482 555 28,100 -2,220 Descending Fort Worth Center
16:57 34.1503 -97.5064 182° South 434 499 22,900 -1,680 Descending Fort Worth Center
16:59 33.9103 -97.5511 189° South 416 479 19,700 -1,560 Descending Fort Worth Center
17:00 33.7997 -97.5708 188° South 411 473 18,300 -1,380 Descending Fort Worth Center
17:01 33.7017 -97.5858 187° South 406 467 17,000 -1,320 Descending Fort Worth Center
17:04 33.3906 -97.6350 188° South 363 418 13,100 -1,320 Descending Fort Worth Center
17:05 33.3197 -97.5700 143° Southeast 316 364 11,800 -1,080 Descending Fort Worth Center
17:06 33.2675 -97.5053 134° Southeast 303 349 11,000 -420 Descending Fort Worth Center
17:07 33.2008 -97.4283 136° Southeast 303 349 11,000  Level Fort Worth Center
17:09 33.0833 -97.2833 134° Southeast 256 295 11,000  Level Dallas / Fort Worth TRACON
17:10 33.0167 -97.2167 140° Southeast 260 299 11,000 -300 Level Dallas / Fort Worth TRACON
17:11 32.9667 -97.1500 132° Southeast 258 297 10,400 -840 Descending Dallas / Fort Worth TRACON
17:12 32.9436 -97.1286 142° Southeast 255 293 9,600 -2,100 Descending Fort Worth Center
17:13 32.8833 -97.0333 127° Southeast 241 277 6,500 -2,100 Descending Dallas / Fort Worth TRACON
17:14 32.8333 -96.9833 140° Southeast 230 265 5,000 -1,260 Descending Dallas / Fort Worth TRACON
17:15 32.8000 -96.9333 128° Southeast 225 259 4,000 -480 Descending Dallas / Fort Worth TRACON
17:18 32.7333 -96.7833 118° Southeast 170 196 3,200 -540 Descending Dallas / Fort Worth TRACON
17:19 32.7833 -96.7833 360° North 163 188 2,000 -960 Descending Dallas / Fort Worth TRACON
17:20 32.8167 -96.8000 337° Northwest 134 154 1,300 -780 Descending Dallas / Fort Worth TRACON